createdAt,value
2022-07-28T00:00:17.718Z,96518.00
2022-07-28T00:02:46.111Z,96528.91
2022-07-28T00:05:14.471Z,96501.06
2022-07-28T00:07:42.685Z,96550.38
2022-07-28T00:10:11.549Z,96562.66
2022-07-28T00:12:39.896Z,96523.63
2022-07-28T00:15:11.059Z,96545.72
2022-07-28T00:17:39.529Z,96553.59
2022-07-28T00:20:10.674Z,96509.91
2022-07-28T00:22:43.241Z,96572.59
2022-07-28T00:25:11.597Z,96518.72
2022-07-28T00:27:39.928Z,96534.28
2022-07-28T00:30:11.059Z,96497.84
2022-07-28T00:32:39.541Z,96573.59
2022-07-28T00:35:08.863Z,96533.44
2022-07-28T00:37:39.979Z,96490.53
2022-07-28T00:40:10.407Z,96546.56
2022-07-28T00:42:38.697Z,96541.03
2022-07-28T00:45:10.261Z,96520.53
2022-07-28T00:47:39.480Z,96561.13
2022-07-28T00:50:08.811Z,96486.84
2022-07-28T00:52:37.197Z,96553.16
2022-07-28T00:55:06.788Z,96540.25
2022-07-28T00:57:35.534Z,96502.59
2022-07-28T01:00:06.317Z,96540.50
2022-07-28T01:02:35.929Z,96534.38
2022-07-28T01:05:04.967Z,96547.50
2022-07-28T01:07:44.262Z,96516.84
2022-07-28T01:10:25.963Z,96554.09
2022-07-28T01:13:04.400Z,96545.09
2022-07-28T01:15:37.939Z,96536.53
2022-07-28T01:18:13.241Z,96567.22
2022-07-28T01:20:48.233Z,96352.53
2022-07-28T01:23:52.282Z,96484.72
2022-07-28T01:26:52.713Z,96507.44
2022-07-28T01:29:34.942Z,96520.34
2022-07-28T01:32:08.177Z,96524.44
2022-07-28T01:34:43.254Z,96552.28
2022-07-28T01:37:14.890Z,96484.34
2022-07-28T01:39:45.015Z,96534.88
2022-07-28T01:42:15.156Z,96514.00
2022-07-28T01:44:46.734Z,96482.88
2022-07-28T01:47:17.436Z,96501.72
2022-07-28T01:49:48.266Z,96488.22
2022-07-28T01:52:18.709Z,96500.09
2022-07-28T01:54:49.211Z,96503.16
2022-07-28T01:57:18.996Z,96475.94
2022-07-28T01:59:49.536Z,96480.66
2022-07-28T02:02:22.749Z,96464.47
2022-07-28T02:04:52.437Z,96473.91
2022-07-28T02:07:22.936Z,96485.78
2022-07-28T02:09:52.110Z,96480.88
2022-07-28T02:12:21.481Z,96414.78
2022-07-28T02:14:51.862Z,96487.00
2022-07-28T02:17:26.316Z,96510.75
2022-07-28T02:19:55.471Z,96498.47
2022-07-28T02:22:24.730Z,96496.41
2022-07-28T02:24:55.451Z,96490.69
2022-07-28T02:27:28.987Z,96508.50
2022-07-28T02:30:05.591Z,96504.19
2022-07-28T02:32:42.195Z,96470.88
2022-07-28T02:35:25.205Z,96488.25
2022-07-28T02:38:03.227Z,96489.69
2022-07-28T02:40:37.630Z,96388.47
2022-07-28T02:43:12.870Z,96510.13
2022-07-28T02:45:47.441Z,96422.03
2022-07-28T02:48:25.429Z,96446.97
2022-07-28T02:50:57.918Z,96471.91
2022-07-28T02:53:27.360Z,96427.09
2022-07-28T02:55:56.724Z,96445.53
2022-07-28T02:58:28.279Z,96448.16
2022-07-28T03:00:58.132Z,96483.75
2022-07-28T03:03:28.489Z,96441.63
2022-07-28T03:05:57.401Z,96416.47
2022-07-28T03:08:25.852Z,96459.00
2022-07-28T03:11:09.279Z,96465.56
2022-07-28T03:13:38.036Z,96453.09
2022-07-28T03:16:07.758Z,96321.66
2022-07-28T03:18:37.398Z,96462.91
2022-07-28T03:21:05.786Z,96415.66
2022-07-28T03:23:41.337Z,96469.44
2022-07-28T03:26:20.935Z,96476.78
2022-07-28T03:28:52.303Z,96464.53
2022-07-28T03:31:22.267Z,96458.16
2022-07-28T03:33:52.623Z,96475.56
2022-07-28T03:36:27.885Z,96486.19
2022-07-28T03:39:03.448Z,96504.63
2022-07-28T03:41:34.659Z,96436.53
2022-07-28T03:44:03.610Z,96524.44
2022-07-28T03:46:32.027Z,96477.59
2022-07-28T03:49:01.662Z,96465.31
2022-07-28T03:51:30.083Z,96476.78
2022-07-28T03:53:58.382Z,96507.03
2022-07-28T03:56:26.635Z,96492.13
2022-07-28T03:58:54.931Z,96500.13
2022-07-28T04:01:23.397Z,96518.09
2022-07-28T04:03:58.205Z,96562.69
2022-07-28T04:06:27.777Z,96483.34
2022-07-28T04:08:55.973Z,96491.91
2022-07-28T04:11:24.330Z,96452.88
2022-07-28T04:13:52.604Z,96460.00
2022-07-28T04:16:22.326Z,96465.31
2022-07-28T04:18:50.903Z,96448.38
2022-07-28T04:21:19.148Z,96477.22
2022-07-28T04:23:48.773Z,96482.91
2022-07-28T04:30:48.726Z,96411.38
2022-07-28T04:33:18.574Z,96381.94
2022-07-28T04:35:46.988Z,96520.16
2022-07-28T04:38:17.871Z,96513.19
2022-07-28T04:40:48.208Z,96490.31
2022-07-28T04:43:16.640Z,96502.97
2022-07-28T04:45:53.943Z,96490.31
2022-07-28T04:48:23.836Z,96467.78
2022-07-28T04:50:53.647Z,96520.34
2022-07-28T04:53:24.204Z,96500.91
2022-07-28T04:55:55.339Z,96515.66
2022-07-28T04:58:24.113Z,96487.19
2022-07-28T05:00:52.830Z,96459.13
2022-07-28T05:03:21.533Z,96438.25
2022-07-28T05:05:54.127Z,96460.97
2022-07-28T05:08:25.730Z,96493.50
2022-07-28T05:10:58.442Z,96486.16
2022-07-28T05:13:31.943Z,96526.59
2022-07-28T05:16:02.547Z,96528.22
2022-07-28T05:18:31.033Z,96436.31
2022-07-28T05:20:59.405Z,96507.78
2022-07-28T05:23:27.818Z,96411.50
2022-07-28T05:25:57.611Z,96498.91
2022-07-28T05:28:25.884Z,96531.06
2022-07-28T05:30:54.212Z,96493.84
2022-07-28T05:33:22.448Z,96478.84
2022-07-28T05:35:54.611Z,96474.16
2022-07-28T05:38:22.981Z,96477.72
2022-07-28T05:40:51.958Z,96475.47
2022-07-28T05:43:22.172Z,96457.56
2022-07-28T05:45:50.938Z,96422.38
2022-07-28T05:48:20.364Z,96475.53
2022-07-28T05:50:48.884Z,96503.94
2022-07-28T05:53:17.587Z,96474.38
2022-07-28T05:55:59.953Z,96533.16
2022-07-28T05:58:35.625Z,96499.78
2022-07-28T06:01:04.792Z,96499.34
2022-07-28T06:03:41.669Z,96509.25
2022-07-28T06:06:15.871Z,96490.59
2022-07-28T06:08:46.737Z,96496.38
2022-07-28T06:11:22.747Z,96536.78
2022-07-28T06:13:53.648Z,96385.00
2022-07-28T06:16:23.744Z,96505.53
2022-07-28T06:18:52.667Z,96483.75
2022-07-28T06:21:24.233Z,96546.88
2022-07-28T06:23:52.470Z,96503.28
2022-07-28T06:26:23.463Z,96491.66
2022-07-28T06:28:53.467Z,96504.31
2022-07-28T06:31:21.740Z,96501.16
2022-07-28T06:33:50.022Z,96495.69
2022-07-28T06:36:18.262Z,96526.22
2022-07-28T06:38:46.437Z,96473.72
2022-07-28T06:41:18.207Z,96500.53
2022-07-28T06:43:46.417Z,96458.53
2022-07-28T06:46:19.362Z,96482.13
2022-07-28T06:48:47.793Z,96409.94
2022-07-28T06:51:19.181Z,96526.38
2022-07-28T06:53:48.421Z,96497.22
2022-07-28T06:56:17.227Z,96493.22
2022-07-28T06:58:47.000Z,96458.72
2022-07-28T07:01:17.290Z,96457.91
2022-07-28T07:03:45.885Z,96484.25
2022-07-28T07:06:14.143Z,96496.66
2022-07-28T07:08:42.317Z,96498.41
2022-07-28T07:11:12.618Z,96482.44
2022-07-28T07:13:40.815Z,96481.97
2022-07-28T07:16:09.061Z,96487.09
2022-07-28T07:18:38.670Z,96449.28
2022-07-28T07:21:06.897Z,96501.63
2022-07-28T07:23:35.840Z,96474.56
2022-07-28T07:26:04.444Z,96484.50
2022-07-28T07:28:34.244Z,96458.28
2022-07-28T07:31:02.594Z,96440.53
2022-07-28T07:33:30.895Z,96450.22
2022-07-28T07:36:00.524Z,96454.63
2022-07-28T07:38:29.335Z,96511.41
2022-07-28T07:40:57.960Z,96483.06
2022-07-28T07:43:26.699Z,96428.06
2022-07-28T07:45:55.121Z,96465.28
2022-07-28T07:48:23.365Z,96428.34
2022-07-28T07:50:53.965Z,96440.63
2022-07-28T07:53:24.263Z,96438.03
2022-07-28T07:55:52.751Z,96476.78
2022-07-28T07:58:21.038Z,96423.84
2022-07-28T08:00:49.231Z,96520.97
2022-07-28T08:03:22.562Z,96444.16
2022-07-28T08:05:56.526Z,96466.22
2022-07-28T08:08:27.320Z,96467.41
2022-07-28T08:10:55.571Z,96409.50
2022-07-28T08:13:24.073Z,96430.47
2022-07-28T08:15:52.671Z,96399.94
2022-07-28T08:18:21.287Z,96428.53
2022-07-28T08:20:49.501Z,96452.59
2022-07-28T08:23:21.575Z,96394.94
2022-07-28T08:25:54.081Z,96469.41
2022-07-28T08:28:22.399Z,96506.56
2022-07-28T08:30:50.688Z,96427.66
2022-07-28T08:33:21.736Z,96408.34
2022-07-28T08:35:50.563Z,96431.97
2022-07-28T08:38:19.982Z,96400.56
2022-07-28T08:40:51.649Z,96450.88
2022-07-28T08:43:32.089Z,96473.44
2022-07-28T08:46:01.957Z,96412.47
2022-07-28T08:48:33.797Z,96424.38
2022-07-28T08:51:05.720Z,96434.63
2022-07-28T08:53:36.793Z,96451.03
2022-07-28T08:56:07.447Z,96482.59
2022-07-28T08:58:38.306Z,96417.56
2022-07-28T09:01:11.292Z,96441.47
2022-07-28T09:03:43.285Z,96438.84
2022-07-28T09:06:11.805Z,96464.97
2022-07-28T09:08:39.982Z,96433.28
2022-07-28T09:11:12.065Z,96431.72
2022-07-28T09:13:41.691Z,96461.38
2022-07-28T09:16:10.040Z,96490.63
2022-07-28T09:18:38.263Z,96439.97
2022-07-28T09:21:06.614Z,96437.28
2022-07-28T09:23:46.175Z,96379.09
2022-07-28T09:26:15.625Z,96446.00
2022-07-28T09:28:54.169Z,96450.88
2022-07-28T09:31:24.960Z,96422.31
2022-07-28T09:34:04.125Z,96400.47
2022-07-28T09:36:39.604Z,96435.06
2022-07-28T09:39:08.263Z,96406.94
2022-07-28T09:41:48.392Z,96422.41
2022-07-28T09:44:21.831Z,96430.75
2022-07-28T09:46:51.031Z,96421.88
2022-07-28T09:49:21.954Z,96416.19
2022-07-28T09:52:05.793Z,96439.72
2022-07-28T09:54:37.451Z,96441.06
2022-07-28T09:57:12.350Z,96416.22
2022-07-28T09:59:50.817Z,96381.38
2022-07-28T10:02:27.659Z,96400.25
2022-07-28T10:04:56.418Z,96395.16
2022-07-28T10:07:24.707Z,96385.13
2022-07-28T10:10:01.338Z,96368.63
2022-07-28T10:12:31.630Z,96385.84
2022-07-28T10:15:34.500Z,96405.03
2022-07-28T10:18:03.210Z,96415.03
2022-07-28T10:20:34.372Z,96390.97
2022-07-28T10:23:05.788Z,96370.31
2022-07-28T10:25:35.847Z,96402.19
2022-07-28T10:28:05.308Z,96389.31
2022-07-28T10:30:41.225Z,96377.22
2022-07-28T10:33:15.661Z,96414.72
2022-07-28T10:35:54.389Z,96379.63
2022-07-28T10:38:26.407Z,96376.34
2022-07-28T10:40:57.327Z,96386.88
2022-07-28T10:43:27.601Z,96371.44
2022-07-28T10:46:06.853Z,96381.75
2022-07-28T10:48:38.645Z,96400.63
2022-07-28T10:51:07.652Z,96370.38
2022-07-28T10:53:44.067Z,96384.50
2022-07-28T10:56:19.345Z,96369.28
2022-07-28T10:59:01.407Z,96363.50
2022-07-28T11:01:48.369Z,96440.94
2022-07-28T11:04:59.132Z,96379.84
2022-07-28T11:07:40.564Z,96364.19
2022-07-28T11:10:19.123Z,96309.25
2022-07-28T11:12:48.905Z,96346.91
2022-07-28T11:15:34.842Z,96382.75
2022-07-28T11:18:09.968Z,96327.38
2022-07-28T11:21:10.095Z,96343.06
2022-07-28T11:23:48.494Z,96345.78
2022-07-28T11:26:42.277Z,96312.88
2022-07-28T11:29:21.675Z,96340.63
2022-07-28T11:32:09.105Z,96341.50
2022-07-28T11:35:11.037Z,96368.59
2022-07-28T11:38:14.170Z,96334.59
2022-07-28T11:40:45.164Z,96276.41
2022-07-28T11:43:37.525Z,96306.00
2022-07-28T11:46:37.514Z,96376.34
2022-07-28T11:49:27.634Z,96297.63
2022-07-28T11:52:16.841Z,96315.34
2022-07-28T11:54:57.385Z,96343.06
2022-07-28T11:57:27.618Z,96304.94
2022-07-28T12:00:01.906Z,96319.16
2022-07-28T12:02:35.961Z,96300.78
2022-07-28T12:05:15.318Z,96314.97
2022-07-28T12:07:48.742Z,96313.97
2022-07-28T12:10:53.850Z,96288.00
2022-07-28T12:13:28.649Z,96321.25
2022-07-28T12:15:57.215Z,96324.91
2022-07-28T12:18:25.486Z,96302.31
2022-07-28T12:20:55.442Z,96273.72
2022-07-28T12:23:45.396Z,96307.75
2022-07-28T12:26:34.499Z,96302.25
2022-07-28T12:29:12.971Z,96323.16
2022-07-28T12:31:54.653Z,96314.50
2022-07-28T12:34:26.663Z,96266.03
2022-07-28T12:36:58.599Z,96300.06
2022-07-28T12:39:28.307Z,96317.63
2022-07-28T12:42:05.465Z,96287.72
2022-07-28T12:44:38.458Z,96304.91
2022-07-28T12:47:09.304Z,96290.59
2022-07-28T12:49:39.109Z,96258.63
2022-07-28T12:52:17.295Z,96299.88
2022-07-28T12:54:52.078Z,96283.81
2022-07-28T12:57:46.179Z,96270.44
2022-07-28T13:00:19.325Z,96290.34
2022-07-28T13:02:48.380Z,96243.13
2022-07-28T13:05:55.610Z,96298.56
2022-07-28T13:08:25.315Z,96277.44
2022-07-28T13:10:58.755Z,96256.72
2022-07-28T13:13:27.909Z,96275.94
2022-07-28T13:16:17.304Z,96296.25
2022-07-28T13:18:47.895Z,96253.47
2022-07-28T13:21:16.758Z,96271.06
2022-07-28T13:23:45.599Z,96288.00
2022-07-28T13:26:15.245Z,96282.69
2022-07-28T13:28:43.428Z,96274.56
2022-07-28T13:31:11.656Z,96289.84
2022-07-28T13:33:39.910Z,96282.09
2022-07-28T13:36:09.282Z,96283.94
2022-07-28T13:38:37.934Z,96246.97
2022-07-28T13:41:06.149Z,96275.53
2022-07-28T13:43:38.651Z,96284.84
2022-07-28T13:46:07.585Z,96266.66
2022-07-28T13:48:40.328Z,96204.00
2022-07-28T13:51:26.435Z,96292.88
2022-07-28T13:53:56.152Z,96243.88
2022-07-28T13:56:25.456Z,96273.75
2022-07-28T13:58:55.002Z,96272.84
2022-07-28T14:01:24.332Z,96288.41
2022-07-28T14:04:17.116Z,96248.44
2022-07-28T14:06:46.230Z,96263.59
2022-07-28T14:09:18.352Z,96263.97
2022-07-28T14:11:49.932Z,96231.72
2022-07-28T14:14:24.918Z,96255.72
2022-07-28T14:16:54.978Z,96273.00
2022-07-28T14:19:38.580Z,96264.81
2022-07-28T14:22:13.229Z,96229.88
2022-07-28T14:24:42.730Z,96300.31
2022-07-28T14:27:11.448Z,96236.53
2022-07-28T14:29:41.154Z,96252.13
2022-07-28T14:32:09.397Z,96238.75
2022-07-28T14:34:37.664Z,96239.34
2022-07-28T14:37:08.887Z,96224.25
2022-07-28T14:39:38.052Z,96244.09
2022-07-28T14:42:06.816Z,96234.22
2022-07-28T14:44:35.414Z,96247.50
2022-07-28T14:47:07.972Z,96225.44
2022-07-28T14:49:38.348Z,96214.97
2022-07-28T14:52:27.235Z,96269.84
2022-07-28T14:54:55.993Z,96243.97
2022-07-28T14:57:25.009Z,96192.94
2022-07-28T15:00:17.474Z,96253.41
2022-07-28T15:02:47.642Z,96309.25
2022-07-28T15:05:16.195Z,96218.38
2022-07-28T15:07:44.454Z,96249.22
2022-07-28T15:10:12.958Z,96249.16
2022-07-28T15:12:41.139Z,96251.09
2022-07-28T15:15:10.847Z,96225.41
2022-07-28T15:17:39.969Z,96222.53
2022-07-28T15:20:11.765Z,96213.59
2022-07-28T15:22:40.165Z,96267.72
2022-07-28T15:25:09.686Z,96203.75
2022-07-28T15:27:41.606Z,96297.94
2022-07-28T15:30:14.702Z,96231.63
2022-07-28T15:32:56.910Z,96236.19
2022-07-28T15:35:27.325Z,96239.81
2022-07-28T15:37:55.852Z,96221.91
2022-07-28T15:40:25.273Z,96242.06
2022-07-28T15:42:53.514Z,96189.56
2022-07-28T15:45:21.837Z,96152.53
2022-07-28T15:47:50.132Z,96219.47
2022-07-28T15:50:18.344Z,96189.66
2022-07-28T15:52:47.853Z,96200.06
2022-07-28T15:55:16.176Z,96250.78
2022-07-28T15:57:45.266Z,96215.06
2022-07-28T16:00:14.595Z,96218.31
2022-07-28T16:02:42.835Z,96236.47
2022-07-28T16:05:11.124Z,96156.75
2022-07-28T16:07:44.622Z,96222.09
2022-07-28T16:10:14.609Z,96234.09
2022-07-28T16:12:42.846Z,96151.81
2022-07-28T16:15:11.406Z,96114.28
2022-07-28T16:17:41.650Z,96203.06
2022-07-28T16:20:11.547Z,96203.53
2022-07-28T16:22:40.831Z,96208.44
2022-07-28T16:25:14.762Z,96215.69
2022-07-28T16:27:46.118Z,96153.75
2022-07-28T16:30:15.543Z,96178.25
2022-07-28T16:32:44.130Z,96205.50
2022-07-28T16:35:12.748Z,96155.53
2022-07-28T16:37:41.438Z,96186.94
2022-07-28T16:40:11.279Z,96160.88
2022-07-28T16:42:41.278Z,96169.09
2022-07-28T16:45:12.568Z,96176.63
2022-07-28T16:47:40.837Z,96136.63
2022-07-28T16:50:11.128Z,96197.50
2022-07-28T16:52:40.705Z,96182.28
2022-07-28T16:55:15.232Z,96198.13
2022-07-28T16:57:45.370Z,96173.59
2022-07-28T17:00:16.703Z,96152.34
2022-07-28T17:02:45.419Z,96208.78
2022-07-28T17:05:14.813Z,96190.81
2022-07-28T17:07:45.957Z,96108.81
2022-07-28T17:10:20.259Z,96200.03
2022-07-28T17:12:50.132Z,96170.69
2022-07-28T17:15:22.872Z,96156.69
2022-07-28T17:17:51.537Z,96165.41
2022-07-28T17:20:20.163Z,96207.66
2022-07-28T17:22:48.522Z,96180.59
2022-07-28T17:28:06.730Z,96161.06
2022-07-28T17:30:36.536Z,96209.63
2022-07-28T17:33:08.691Z,96195.44
2022-07-28T17:35:38.553Z,96135.53
2022-07-28T17:38:09.433Z,96199.91
2022-07-28T17:40:39.993Z,96158.81
2022-07-28T17:43:08.806Z,96233.97
2022-07-28T17:45:38.672Z,96203.75
2022-07-28T17:48:07.328Z,96197.81
2022-07-28T17:50:35.620Z,96218.69
2022-07-28T17:53:04.194Z,96184.88
2022-07-28T17:55:57.888Z,96209.50
2022-07-28T17:58:29.178Z,96200.09
2022-07-28T18:01:10.006Z,96230.09
2022-07-28T18:03:58.094Z,96161.72
2022-07-28T18:06:32.296Z,96169.38
2022-07-28T18:09:06.044Z,96239.63
2022-07-28T18:11:56.808Z,96112.41
2022-07-28T18:14:26.490Z,96187.28
2022-07-28T18:16:56.469Z,96187.84
2022-07-28T18:19:24.744Z,96223.81
2022-07-28T18:21:53.311Z,96241.06
2022-07-28T18:24:23.074Z,96271.63
2022-07-28T18:26:51.991Z,96231.13
2022-07-28T18:29:21.653Z,96183.34
2022-07-28T18:31:51.549Z,96175.09
2022-07-28T18:34:23.770Z,96220.16
2022-07-28T18:36:53.925Z,96222.91
2022-07-28T18:39:22.369Z,96210.78
2022-07-28T18:41:50.575Z,96215.66
2022-07-28T18:44:19.981Z,96231.28
2022-07-28T18:46:48.765Z,96167.13
2022-07-28T18:49:17.053Z,96206.22
2022-07-28T18:51:46.597Z,96208.91
2022-07-28T18:54:18.929Z,96217.50
2022-07-28T18:56:53.216Z,96228.50
2022-07-28T18:59:21.710Z,96187.81
2022-07-28T19:01:50.017Z,96200.97
2022-07-28T19:04:18.974Z,96239.44
2022-07-28T19:06:48.862Z,96189.84
2022-07-28T19:09:17.072Z,96214.34
2022-07-28T19:11:46.423Z,96196.78
2022-07-28T19:14:15.365Z,96167.34
2022-07-28T19:16:44.443Z,96216.25
2022-07-28T19:19:12.956Z,96269.34
2022-07-28T19:21:43.180Z,96239.25
2022-07-28T19:24:14.457Z,96203.19
2022-07-28T19:26:45.151Z,96161.97
2022-07-28T19:29:14.208Z,96188.53
2022-07-28T19:31:42.455Z,96206.78
2022-07-28T19:34:11.654Z,96288.53
2022-07-28T19:36:41.704Z,96232.34
2022-07-28T19:39:12.239Z,96237.66
2022-07-28T19:41:41.856Z,96241.19
2022-07-28T19:44:10.751Z,96256.03
2022-07-28T19:46:39.485Z,96263.47
2022-07-28T19:49:07.984Z,96258.72
2022-07-28T19:51:36.744Z,96199.94
2022-07-28T19:54:05.817Z,96260.66
2022-07-28T19:56:35.645Z,96273.72
2022-07-28T19:59:03.806Z,96305.19
2022-07-28T20:01:32.188Z,96239.56
2022-07-28T20:04:05.470Z,96280.56
2022-07-28T20:06:34.413Z,96271.88
2022-07-28T20:11:33.325Z,96251.16
2022-07-28T20:14:03.556Z,96271.88
2022-07-28T20:16:31.923Z,96246.91
2022-07-28T20:19:00.122Z,96294.13
2022-07-28T20:21:28.361Z,96290.00
2022-07-28T20:23:58.005Z,96264.84
2022-07-28T20:26:27.086Z,96219.84
2022-07-28T20:28:58.613Z,96337.47
2022-07-28T20:31:28.572Z,96313.53
2022-07-28T20:33:57.961Z,96333.66
2022-07-28T20:36:29.722Z,96326.44
2022-07-28T20:38:58.384Z,96300.25
2022-07-28T20:41:26.646Z,96365.94
2022-07-28T20:44:26.070Z,96323.47
2022-07-28T20:46:44.836Z,96345.59
2022-07-28T20:49:13.102Z,96356.69
2022-07-28T20:51:50.674Z,96292.94
2022-07-28T20:54:19.712Z,96318.16
2022-07-28T20:56:48.353Z,96347.09
2022-07-28T20:59:16.616Z,96290.50
2022-07-28T21:01:46.241Z,96352.31
2022-07-28T21:04:14.889Z,96319.78
2022-07-28T21:06:50.911Z,96311.16
2022-07-28T21:09:20.438Z,96317.50
2022-07-28T21:11:48.651Z,96357.38
2022-07-28T21:14:17.256Z,96336.34
2022-07-28T21:16:47.165Z,96328.41
2022-07-28T21:19:15.435Z,96304.38
2022-07-28T21:21:43.660Z,96365.25
2022-07-28T21:24:11.957Z,96351.66
2022-07-28T21:26:42.659Z,96316.06
2022-07-28T21:32:02.089Z,96318.81
2022-07-28T21:34:34.954Z,96368.75
2022-07-28T21:37:03.799Z,96349.44
2022-07-28T21:39:32.658Z,96299.97
2022-07-28T21:42:01.182Z,96366.19
2022-07-28T21:44:35.808Z,96340.22
2022-07-28T21:47:05.925Z,96373.47
2022-07-28T21:49:34.282Z,96361.28
2022-07-28T21:52:02.488Z,96399.34
2022-07-28T21:54:30.685Z,96383.63
2022-07-28T21:56:59.184Z,96335.44
2022-07-28T21:59:27.433Z,96384.06
2022-07-28T22:01:56.147Z,96339.69
2022-07-28T22:04:25.845Z,96380.19
2022-07-28T22:06:54.243Z,96371.56
2022-07-28T22:09:22.441Z,96421.47
2022-07-28T22:11:50.694Z,96359.81
2022-07-28T22:14:19.323Z,96413.69
2022-07-28T22:16:47.895Z,96451.66
2022-07-28T22:19:16.124Z,96402.28
2022-07-28T22:21:45.641Z,96439.28
2022-07-28T22:24:16.493Z,96407.13
2022-07-28T22:26:44.989Z,96428.41
2022-07-28T22:29:13.433Z,96441.75
2022-07-28T22:31:41.725Z,96429.97
2022-07-28T22:34:10.001Z,96481.34
2022-07-28T22:36:39.089Z,96414.94
2022-07-28T22:39:08.737Z,96433.63
2022-07-28T22:41:36.918Z,96401.03
2022-07-28T22:44:05.821Z,96453.63
2022-07-28T22:46:35.211Z,96450.19
2022-07-28T22:49:10.138Z,96406.47
2022-07-28T22:51:38.516Z,96450.66
2022-07-28T22:54:08.508Z,96418.63
2022-07-28T22:56:37.603Z,96397.31
2022-07-28T22:59:07.374Z,96405.31
2022-07-28T23:01:35.926Z,96362.91
2022-07-28T23:04:05.452Z,96372.56
2022-07-28T23:06:35.874Z,96322.84
2022-07-28T23:09:04.294Z,96318.53
2022-07-28T23:11:33.932Z,96297.00
2022-07-28T23:14:02.119Z,96279.53
2022-07-28T23:16:30.372Z,96324.34
2022-07-28T23:18:59.324Z,96282.56
2022-07-28T23:21:27.700Z,96258.31
2022-07-28T23:23:55.878Z,96311.00
2022-07-28T23:26:24.112Z,96299.69
2022-07-28T23:28:53.658Z,96348.75
2022-07-28T23:31:21.887Z,96275.22
2022-07-28T23:33:54.425Z,96353.78
2022-07-28T23:36:26.033Z,96406.88
2022-07-28T23:38:55.612Z,96376.22
2022-07-28T23:41:23.913Z,96327.50
2022-07-28T23:43:53.709Z,96383.84
2022-07-28T23:46:22.479Z,96355.06
2022-07-28T23:48:51.050Z,96244.41
2022-07-28T23:51:21.123Z,96358.78
2022-07-28T23:53:55.913Z,96350.44
2022-07-28T23:56:24.839Z,96288.75
2022-07-28T23:58:54.405Z,96366.72
